< Cyclone 200303 2003 Season Cyclone 200305 >
Cyclone 200304 (HARRIET)
General InformationTrack Information on Google MapsDetailed Wind InformationList of All Images || ResourceGoogle EarthGE AnimationAtom FeedGeoJSON
Detalied Best Track (Time Zone = UTC)
Year Month Day Hour Lat. Long. Pressure (hPa) Wind (kt) Class Image Chart
2003 3 1 18 -13.3 105.5 1000 20 2 Image --
2003 3 2 00 -13.7 106.3 998 25 2 Image --
2003 3 2 06 -14.1 107.2 996 25 2 Image --
2003 3 2 12 -14.3 108.0 995 30 2 Image --
2003 3 2 18 -14.5 108.7 995 30 2 Image --
2003 3 3 00 -14.6 109.5 995 30 2 Image --
2003 3 3 06 -14.6 110.1 992 30 2 Image --
2003 3 3 12 -14.6 110.9 992 30 2 Image --
2003 3 3 18 -14.6 111.5 992 30 2 Image --
2003 3 4 00 -14.6 112.2 992 30 2 Image --
2003 3 4 06 -14.7 113.0 990 35 3 Image --
2003 3 4 12 -14.7 113.9 990 35 3 Image --
2003 3 4 18 -15.0 114.5 990 35 3 Image --
2003 3 5 00 -15.8 114.7 990 35 3 Image --
2003 3 5 06 -16.1 115.3 992 30 2 Image --
2003 3 5 12 -16.8 116.0 992 30 2 Image --
2003 3 5 18 -17.6 116.0 992 30 2 Image --
2003 3 6 00 -18.3 115.7 990 35 3 Image --
2003 3 6 06 -18.6 115.3 990 35 3 Image --
2003 3 6 12 -18.7 115.0 992 30 2 Image --
2003 3 6 18 -18.8 114.7 992 30 2 Image --
2003 3 7 00 -18.8 114.5 992 30 2 Image --
2003 3 7 06 -18.9 114.2 990 35 3 Image --
2003 3 7 12 -19.1 113.9 990 35 3 Image --
2003 3 7 18 -19.2 113.6 990 35 3 Image --
2003 3 8 00 -19.3 113.3 988 40 3 Image --
2003 3 8 06 -19.7 112.8 988 40 3 Image --
2003 3 8 12 -20.2 112.3 985 45 3 Image --
2003 3 8 18 -20.8 111.2 985 45 3 Image --
2003 3 9 00 -21.4 110.3 988 40 3 Image --
2003 3 9 06 -22.3 109.3 990 35 3 Image --
2003 3 9 12 -23.6 108.3 992 35 3 Image --
2003 3 9 18 -25.0 107.6 994 35 3 Image --
2003 3 10 00 -26.5 107.2 996 35 3 Image --
2003 3 10 06 -28.2 107.8 998 35 3 Image --
2003 3 10 12 -29.8 109.0 998 35 3 Image --
2003 3 10 18 -32.4 110.8 998 35 3 Image --
2003 3 11 00 -35.3 113.4 1000 25 2 Image --
< Cyclone 200303 2003 Season Cyclone 200305 >

Help